Time;durP1;ratioP1;P1;durP2;ratioP2;P2;SDS_P1;SDS_P2;PMS_P1;PMS_P2;Temp;Humidity;BMP_temperature;BMP_pressure;BME280_temperature;BME280_humidity;BME280_pressure;Samples;Min_cycle;Max_cycle;Signal;HPM_P1;HPM_P2
2022/10/30 00:00:51;;;;;;;;;;;13.20;99.90;;;;;;4950751;29;19914;-75
2022/10/30 00:03:17;;;;;;;;;;;13.20;99.90;;;;;;4948637;29;20401;-76
2022/10/30 00:05:46;;;;;;;;;;;13.20;99.90;;;;;;4950340;29;20005;-77
2022/10/30 00:08:13;;;;;;;;;;;13.30;99.90;;;;;;4947260;28;19941;-77
2022/10/30 00:10:38;;;;;;;;;;;13.20;99.90;;;;;;4935531;29;19913;-77
2022/10/30 00:13:04;;;;;;;;;;;13.10;99.90;;;;;;4947779;29;19914;-77
2022/10/30 00:15:29;;;;;;;;;;;13.10;99.90;;;;;;4949193;28;19914;-75
2022/10/30 00:17:55;;;;;;;;;;;13.10;99.90;;;;;;4950100;29;19918;-77
2022/10/30 00:20:20;;;;;;;;;;;13.00;99.90;;;;;;4935537;29;19991;-77
2022/10/30 00:22:46;;;;;;;;;;;13.00;99.90;;;;;;4942054;29;19919;-77
2022/10/30 00:25:11;;;;;;;;;;;12.90;99.90;;;;;;4952376;29;19917;-77
2022/10/30 00:27:36;;;;;;;;;;;12.90;99.90;;;;;;4952446;29;20289;-77
2022/10/30 00:30:02;;;;;;;;;;;12.90;99.90;;;;;;4951991;29;19914;-77
2022/10/30 00:32:27;;;;;;;;;;;12.90;99.90;;;;;;4950461;29;19910;-77
2022/10/30 00:34:53;;;;;;;;;;;12.90;99.90;;;;;;4951628;28;19910;-77
2022/10/30 00:37:18;;;;;;;;;;;12.80;99.90;;;;;;4950859;29;19958;-77
2022/10/30 00:39:43;;;;;;;;;;;12.80;99.90;;;;;;4951859;29;19961;-77
2022/10/30 00:42:13;;;;;;;;;;;12.70;99.90;;;;;;4951650;28;19974;-76
2022/10/30 00:44:42;;;;;;;;;;;12.70;99.90;;;;;;4952111;28;19907;-77
2022/10/30 00:47:13;;;;;;;;;;;12.70;99.90;;;;;;4952318;28;19997;-77
2022/10/30 00:49:44;;;;;;;;;;;12.60;99.90;;;;;;4952073;28;20059;-77
2022/10/30 00:52:09;;;;;;;;;;;12.50;99.90;;;;;;4950568;29;19914;-76
2022/10/30 00:54:35;;;;;;;;;;;12.60;99.90;;;;;;4952102;29;19906;-77
2022/10/30 00:57:04;;;;;;;;;;;12.60;99.90;;;;;;4951982;28;20662;-76
2022/10/30 00:59:31;;;;;;;;;;;12.50;99.90;;;;;;4951872;28;20480;-76
2022/10/30 01:01:57;;;;;;;;;;;12.50;99.90;;;;;;4949069;28;19937;-76
2022/10/30 01:04:24;;;;;;;;;;;12.40;99.90;;;;;;4951671;28;20357;-77
2022/10/30 01:06:51;;;;;;;;;;;12.50;99.90;;;;;;4946721;28;19914;-76
2022/10/30 01:09:17;;;;;;;;;;;12.40;99.90;;;;;;4950150;29;19997;-77
2022/10/30 01:11:43;;;;;;;;;;;12.30;99.90;;;;;;4950532;28;20026;-76
2022/10/30 01:14:10;;;;;;;;;;;12.30;99.90;;;;;;4952070;29;19989;-77
2022/10/30 01:16:54;;;;;;;;;;;12.30;99.90;;;;;;4951663;28;19907;-75
2022/10/30 01:19:29;;;;;;;;;;;12.20;99.90;;;;;;4951804;28;20637;-75
2022/10/30 01:22:10;;;;;;;;;;;12.20;99.90;;;;;;4948769;28;19918;-76
2022/10/30 01:24:36;;;;;;;;;;;12.20;99.90;;;;;;4945584;29;19918;-75
2022/10/30 01:27:22;;;;;;;;;;;12.10;99.90;;;;;;4949429;29;19911;-76
2022/10/30 01:30:04;;;;;;;;;;;12.10;99.90;;;;;;4946392;29;19910;-76
2022/10/30 01:32:36;;;;;;;;;;;12.00;99.90;;;;;;4949202;28;19919;-76
2022/10/30 01:35:14;;;;;;;;;;;12.00;99.90;;;;;;4949130;28;19917;-76
2022/10/30 01:37:44;;;;;;;;;;;11.90;99.90;;;;;;4949137;28;19929;-76
2022/10/30 01:40:14;;;;;;;;;;;11.90;99.90;;;;;;4951063;28;19914;-76
2022/10/30 01:42:44;;;;;;;;;;;11.90;99.90;;;;;;4950725;28;19919;-76
2022/10/30 01:45:12;;;;;;;;;;;11.80;99.90;;;;;;4948616;29;19918;-76
2022/10/30 01:47:58;;;;;;;;;;;11.90;99.90;;;;;;4949336;28;19915;-76
2022/10/30 01:50:31;;;;;;;;;;;11.90;99.90;;;;;;4942173;29;20354;-76
2022/10/30 01:53:09;;;;;;;;;;;11.90;99.90;;;;;;4951004;28;20594;-75
2022/10/30 01:55:39;;;;;;;;;;;11.90;99.90;;;;;;4947915;29;19910;-76
2022/10/30 01:58:16;;;;;;;;;;;11.80;99.90;;;;;;4948423;28;19976;-76
2022/10/30 02:00:42;;;;;;;;;;;11.80;99.90;;;;;;4948724;28;19917;-76
2022/10/30 02:03:08;;;;;;;;;;;11.70;99.90;;;;;;4949046;28;20409;-76
2022/10/30 02:05:46;;;;;;;;;;;11.70;99.90;;;;;;4948723;29;19918;-76
2022/10/30 02:08:11;;;;;;;;;;;11.60;99.90;;;;;;4947758;29;19918;-76
2022/10/30 02:10:37;;;;;;;;;;;11.60;99.90;;;;;;4950711;29;19965;-76
2022/10/30 02:13:03;;;;;;;;;;;11.50;99.90;;;;;;4949496;28;19914;-77
2022/10/30 02:15:29;;;;;;;;;;;11.50;99.90;;;;;;4949603;28;20329;-77
2022/10/30 02:17:55;;;;;;;;;;;11.50;99.90;;;;;;4939489;28;19915;-77
2022/10/30 02:20:20;;;;;;;;;;;11.40;99.90;;;;;;4949049;29;19942;-77
2022/10/30 02:22:46;;;;;;;;;;;11.40;99.90;;;;;;4949938;29;19957;-77
2022/10/30 02:25:12;;;;;;;;;;;11.40;99.90;;;;;;4949435;28;19914;-76
2022/10/30 02:27:37;;;;;;;;;;;11.30;99.90;;;;;;4947275;28;19917;-77
2022/10/30 02:30:03;;;;;;;;;;;11.30;99.90;;;;;;4947390;28;19914;-76
2022/10/30 02:32:29;;;;;;;;;;;11.30;99.90;;;;;;4950678;28;20374;-77
2022/10/30 02:34:54;;;;;;;;;;;11.40;99.90;;;;;;4948064;28;19906;-76
2022/10/30 02:37:19;;;;;;;;;;;11.40;99.90;;;;;;4948135;29;19929;-76
2022/10/30 02:39:45;;;;;;;;;;;11.30;99.90;;;;;;4949965;28;19941;-76
2022/10/30 02:42:10;;;;;;;;;;;11.30;99.90;;;;;;4949932;29;20285;-76
2022/10/30 02:44:36;;;;;;;;;;;11.30;99.90;;;;;;4948816;29;19993;-76
2022/10/30 02:47:01;;;;;;;;;;;11.30;99.90;;;;;;4948871;29;20328;-75
2022/10/30 02:49:26;;;;;;;;;;;11.20;99.90;;;;;;4947090;29;19911;-76
2022/10/30 02:51:52;;;;;;;;;;;11.30;99.90;;;;;;4950437;29;19910;-76
2022/10/30 02:54:17;;;;;;;;;;;11.30;99.90;;;;;;4947580;29;19957;-77
2022/10/30 02:56:43;;;;;;;;;;;11.30;99.90;;;;;;4949246;29;19937;-75
2022/10/30 02:59:08;;;;;;;;;;;11.20;99.90;;;;;;4951411;28;19907;-76
2022/10/30 03:01:33;;;;;;;;;;;11.10;99.90;;;;;;4953277;29;19914;-76
2022/10/30 03:03:59;;;;;;;;;;;11.10;99.90;;;;;;4953646;29;20554;-76
2022/10/30 03:06:24;;;;;;;;;;;11.10;99.90;;;;;;4948685;28;19917;-77
2022/10/30 03:08:50;;;;;;;;;;;11.10;99.90;;;;;;4951121;29;20109;-76
2022/10/30 03:11:16;;;;;;;;;;;11.20;99.90;;;;;;4951788;28;20004;-77
2022/10/30 03:13:42;;;;;;;;;;;11.30;99.90;;;;;;4953025;28;19946;-76
2022/10/30 03:16:17;;;;;;;;;;;11.20;99.90;;;;;;4952388;28;19922;-77
2022/10/30 03:18:42;;;;;;;;;;;11.20;99.90;;;;;;4950676;28;20358;-76
2022/10/30 03:21:09;;;;;;;;;;;11.10;99.90;;;;;;4953297;29;19914;-76
2022/10/30 03:23:34;;;;;;;;;;;11.10;99.90;;;;;;4953463;28;19961;-76
2022/10/30 03:26:00;;;;;;;;;;;11.10;99.90;;;;;;4953038;28;20317;-76
2022/10/30 03:28:27;;;;;;;;;;;11.20;99.90;;;;;;4949692;28;19906;-77
2022/10/30 03:30:59;;;;;;;;;;;11.30;99.90;;;;;;4952585;28;20001;-76
2022/10/30 03:33:25;;;;;;;;;;;11.30;99.90;;;;;;4953601;28;20263;-76
2022/10/30 03:35:51;;;;;;;;;;;11.30;99.90;;;;;;4952054;29;19917;-77
2022/10/30 03:38:16;;;;;;;;;;;11.30;99.90;;;;;;4949744;28;19929;-77
2022/10/30 03:40:41;;;;;;;;;;;11.40;99.90;;;;;;4952237;29;20329;-77
2022/10/30 03:43:07;;;;;;;;;;;11.30;99.90;;;;;;4952509;28;19911;-76
2022/10/30 03:45:33;;;;;;;;;;;11.40;99.90;;;;;;4952031;28;19915;-76
2022/10/30 03:48:01;;;;;;;;;;;11.50;99.90;;;;;;4949873;28;19918;-76
2022/10/30 03:50:27;;;;;;;;;;;11.60;99.90;;;;;;4951733;28;19910;-76
2022/10/30 03:52:53;;;;;;;;;;;11.60;99.90;;;;;;4952851;29;19918;-76
2022/10/30 03:55:18;;;;;;;;;;;11.80;99.90;;;;;;4952361;28;19911;-77
2022/10/30 03:57:43;;;;;;;;;;;11.90;99.90;;;;;;4951238;29;19914;-77
2022/10/30 04:00:09;;;;;;;;;;;11.90;99.90;;;;;;4950006;29;20385;-77
2022/10/30 04:02:35;;;;;;;;;;;12.00;99.90;;;;;;4952801;28;19911;-77
2022/10/30 04:05:00;;;;;;;;;;;12.00;99.90;;;;;;4951699;28;20136;-77
2022/10/30 04:07:25;;;;;;;;;;;12.00;99.90;;;;;;4946425;29;19910;-77
2022/10/30 04:09:51;;;;;;;;;;;12.10;99.90;;;;;;4949743;28;19918;-77
2022/10/30 04:12:16;;;;;;;;;;;12.10;99.90;;;;;;4951232;28;19910;-77
2022/10/30 04:14:42;;;;;;;;;;;12.10;99.90;;;;;;4950915;28;19969;-77
2022/10/30 04:17:07;;;;;;;;;;;12.20;99.90;;;;;;4947574;29;19925;-76
2022/10/30 04:19:33;;;;;;;;;;;12.20;99.90;;;;;;4950259;29;20329;-77
2022/10/30 04:21:58;;;;;;;;;;;12.20;99.90;;;;;;4951504;29;20358;-77
2022/10/30 04:24:23;;;;;;;;;;;12.30;99.90;;;;;;4951751;28;20376;-77
2022/10/30 04:26:49;;;;;;;;;;;12.30;99.90;;;;;;4951896;29;19906;-76
2022/10/30 04:29:15;;;;;;;;;;;12.30;99.90;;;;;;4951792;29;19910;-77
2022/10/30 04:31:40;;;;;;;;;;;12.20;99.90;;;;;;4949629;29;19988;-77
2022/10/30 04:34:05;;;;;;;;;;;12.20;99.90;;;;;;4949853;29;20561;-76
2022/10/30 04:36:32;;;;;;;;;;;12.20;99.90;;;;;;4952174;29;20599;-77
2022/10/30 04:38:58;;;;;;;;;;;12.20;99.90;;;;;;4943098;28;20001;-77
2022/10/30 04:41:24;;;;;;;;;;;12.20;99.90;;;;;;4947129;29;20423;-76
2022/10/30 04:43:49;;;;;;;;;;;12.10;99.90;;;;;;4950624;28;19941;-77
2022/10/30 04:46:16;;;;;;;;;;;12.00;99.90;;;;;;4951077;28;19917;-76
2022/10/30 04:48:41;;;;;;;;;;;12.10;99.90;;;;;;4952084;28;20027;-77
2022/10/30 04:51:08;;;;;;;;;;;12.10;99.90;;;;;;4950704;28;20010;-77
2022/10/30 04:53:33;;;;;;;;;;;12.20;99.90;;;;;;4951283;28;19969;-76
2022/10/30 04:55:59;;;;;;;;;;;12.30;99.90;;;;;;4950602;29;19910;-77
2022/10/30 04:58:24;;;;;;;;;;;12.40;99.90;;;;;;4951501;29;20437;-76
2022/10/30 05:00:50;;;;;;;;;;;12.40;99.90;;;;;;4951664;29;19914;-76
2022/10/30 05:03:19;;;;;;;;;;;12.40;99.90;;;;;;4948765;28;20366;-77
2022/10/30 05:05:46;;;;;;;;;;;12.40;99.90;;;;;;4949602;28;20291;-77
2022/10/30 05:08:11;;;;;;;;;;;12.30;99.90;;;;;;4951426;28;19915;-76
2022/10/30 05:10:40;;;;;;;;;;;12.30;99.90;;;;;;4951345;29;19918;-77
2022/10/30 05:13:05;;;;;;;;;;;12.20;99.90;;;;;;4950114;29;19914;-76
2022/10/30 05:15:31;;;;;;;;;;;12.20;99.90;;;;;;4950384;28;19920;-77
2022/10/30 05:17:56;;;;;;;;;;;12.20;99.90;;;;;;4947170;28;19915;-77
2022/10/30 05:20:21;;;;;;;;;;;12.30;99.90;;;;;;4952065;28;20278;-76
2022/10/30 05:22:57;;;;;;;;;;;12.30;99.90;;;;;;4951457;28;19914;-77
2022/10/30 05:25:22;;;;;;;;;;;12.40;99.90;;;;;;4951186;28;19911;-77
2022/10/30 05:27:48;;;;;;;;;;;12.30;99.90;;;;;;4950071;28;20326;-77
2022/10/30 05:30:13;;;;;;;;;;;12.40;99.90;;;;;;4950541;28;19922;-77
2022/10/30 05:32:39;;;;;;;;;;;12.50;99.90;;;;;;4951063;29;19949;-76
2022/10/30 05:35:04;;;;;;;;;;;12.50;99.90;;;;;;4949571;29;20483;-76
2022/10/30 05:37:30;;;;;;;;;;;12.60;99.90;;;;;;4950893;29;19915;-76
2022/10/30 05:39:55;;;;;;;;;;;12.70;99.90;;;;;;4949138;29;20017;-76
2022/10/30 05:42:20;;;;;;;;;;;12.80;99.90;;;;;;4951302;28;20342;-77
2022/10/30 05:44:46;;;;;;;;;;;12.90;99.90;;;;;;4949029;29;19910;-77
2022/10/30 05:47:11;;;;;;;;;;;12.80;99.90;;;;;;4950849;29;19940;-77
2022/10/30 05:49:37;;;;;;;;;;;12.80;99.90;;;;;;4949458;29;20179;-77
2022/10/30 05:52:02;;;;;;;;;;;13.00;99.90;;;;;;4949166;28;19957;-77
2022/10/30 05:54:28;;;;;;;;;;;13.00;99.90;;;;;;4950613;29;19926;-76
2022/10/30 05:56:53;;;;;;;;;;;12.90;99.90;;;;;;4950310;29;19961;-77
2022/10/30 05:59:18;;;;;;;;;;;12.80;99.90;;;;;;4948736;29;20373;-76
2022/10/30 06:01:44;;;;;;;;;;;12.80;99.90;;;;;;4949970;29;19911;-76
2022/10/30 06:04:09;;;;;;;;;;;12.80;99.90;;;;;;4950437;29;19914;-77
2022/10/30 06:06:35;;;;;;;;;;;12.80;99.90;;;;;;4945612;28;19911;-77
2022/10/30 06:09:00;;;;;;;;;;;12.80;99.90;;;;;;4946354;29;19917;-77
2022/10/30 06:11:25;;;;;;;;;;;12.80;99.90;;;;;;4950933;28;20255;-76
2022/10/30 06:13:51;;;;;;;;;;;12.90;99.90;;;;;;4949529;29;19910;-76
2022/10/30 06:16:16;;;;;;;;;;;12.90;99.90;;;;;;4949134;29;19974;-77
2022/10/30 06:18:42;;;;;;;;;;;12.90;99.90;;;;;;4948391;28;19921;-77
2022/10/30 06:21:07;;;;;;;;;;;12.80;99.90;;;;;;4947470;28;20257;-76
2022/10/30 06:23:32;;;;;;;;;;;12.90;99.90;;;;;;4949644;29;19915;-77
2022/10/30 06:25:58;;;;;;;;;;;12.90;99.90;;;;;;4950544;29;19913;-77
2022/10/30 06:28:23;;;;;;;;;;;12.80;99.90;;;;;;4950030;29;19914;-77
2022/10/30 06:30:49;;;;;;;;;;;12.90;99.90;;;;;;4947286;28;19953;-77
2022/10/30 06:33:14;;;;;;;;;;;12.90;99.90;;;;;;4948734;28;19916;-77
2022/10/30 06:35:39;;;;;;;;;;;13.00;99.90;;;;;;4950601;28;19921;-76
2022/10/30 06:38:05;;;;;;;;;;;13.00;99.90;;;;;;4947653;29;19914;-77
2022/10/30 06:40:31;;;;;;;;;;;13.20;99.90;;;;;;4944548;29;20301;-76
2022/10/30 06:42:57;;;;;;;;;;;13.20;99.90;;;;;;4948845;29;19914;-77
2022/10/30 06:45:23;;;;;;;;;;;13.20;99.90;;;;;;4950038;29;19937;-76
2022/10/30 06:47:49;;;;;;;;;;;13.20;99.90;;;;;;4950467;28;20386;-76
2022/10/30 06:50:15;;;;;;;;;;;13.20;99.90;;;;;;4949208;29;19953;-77
2022/10/30 06:52:41;;;;;;;;;;;13.20;99.90;;;;;;4949113;28;19918;-76
2022/10/30 06:55:07;;;;;;;;;;;13.20;99.90;;;;;;4947735;28;19911;-76
2022/10/30 06:57:32;;;;;;;;;;;13.10;99.90;;;;;;4949681;28;20509;-76
2022/10/30 06:59:57;;;;;;;;;;;13.00;99.90;;;;;;4949873;29;20123;-76
2022/10/30 07:02:23;;;;;;;;;;;12.90;99.90;;;;;;4947553;28;20047;-76
2022/10/30 07:04:48;;;;;;;;;;;12.90;99.90;;;;;;4949256;28;19911;-78
2022/10/30 07:07:14;;;;;;;;;;;12.80;99.90;;;;;;4944768;29;20011;-76
2022/10/30 07:09:40;;;;;;;;;;;12.80;99.90;;;;;;4947521;28;20423;-76
2022/10/30 07:12:06;;;;;;;;;;;12.80;99.90;;;;;;4946124;29;19911;-76
2022/10/30 07:14:31;;;;;;;;;;;12.80;99.90;;;;;;4949269;28;19965;-77
2022/10/30 07:16:56;;;;;;;;;;;12.80;99.90;;;;;;4947394;29;20372;-77
2022/10/30 07:19:22;;;;;;;;;;;12.90;99.90;;;;;;4943370;29;19918;-77
2022/10/30 07:21:47;;;;;;;;;;;12.90;99.90;;;;;;4947974;29;19973;-76
2022/10/30 07:24:13;;;;;;;;;;;12.90;99.90;;;;;;4946121;29;19917;-77
2022/10/30 07:26:38;;;;;;;;;;;13.00;99.90;;;;;;4948287;28;19918;-77
2022/10/30 07:29:04;;;;;;;;;;;13.10;99.90;;;;;;4947042;29;19910;-76
2022/10/30 07:31:29;;;;;;;;;;;13.30;99.90;;;;;;4942221;28;19926;-76
2022/10/30 07:33:55;;;;;;;;;;;13.40;99.90;;;;;;4947186;28;20357;-76
2022/10/30 07:36:20;;;;;;;;;;;13.60;99.90;;;;;;4949499;29;20012;-77
2022/10/30 07:38:49;;;;;;;;;;;13.80;99.90;;;;;;4947049;28;19930;-77
2022/10/30 07:41:16;;;;;;;;;;;13.90;99.90;;;;;;4947805;28;20449;-77
2022/10/30 07:43:41;;;;;;;;;;;14.00;99.90;;;;;;4948315;28;19917;-77
2022/10/30 07:46:07;;;;;;;;;;;14.00;99.90;;;;;;4952643;28;19910;-77
2022/10/30 07:48:32;;;;;;;;;;;14.10;99.90;;;;;;4951885;29;20321;-77
2022/10/30 07:50:58;;;;;;;;;;;14.20;99.90;;;;;;4950504;28;19910;-77
2022/10/30 07:53:23;;;;;;;;;;;14.50;99.90;;;;;;4951848;29;19957;-77
2022/10/30 07:55:48;;;;;;;;;;;14.60;99.90;;;;;;4950966;29;19910;-76
2022/10/30 07:58:14;;;;;;;;;;;14.80;99.90;;;;;;4951324;29;19918;-77
2022/10/30 08:00:39;;;;;;;;;;;15.00;99.90;;;;;;4949283;29;19950;-77
2022/10/30 08:03:05;;;;;;;;;;;15.10;99.90;;;;;;4952798;29;20376;-76
2022/10/30 08:05:30;;;;;;;;;;;15.30;99.90;;;;;;4952824;28;20307;-76
2022/10/30 08:07:56;;;;;;;;;;;15.50;99.90;;;;;;4951134;29;20000;-77
2022/10/30 08:10:22;;;;;;;;;;;15.60;99.90;;;;;;4949886;28;19914;-77
2022/10/30 08:12:47;;;;;;;;;;;15.70;99.90;;;;;;4951367;29;19910;-76
2022/10/30 08:15:13;;;;;;;;;;;15.80;99.90;;;;;;4940721;29;19915;-77
2022/10/30 08:17:42;;;;;;;;;;;15.90;99.90;;;;;;4944541;29;19933;-76
2022/10/30 08:20:08;;;;;;;;;;;15.90;99.90;;;;;;4947145;28;20552;-76
2022/10/30 08:22:33;;;;;;;;;;;16.00;99.90;;;;;;4952715;29;20002;-76
2022/10/30 08:24:59;;;;;;;;;;;16.00;99.90;;;;;;4951147;29;19914;-77
2022/10/30 08:27:24;;;;;;;;;;;16.00;99.90;;;;;;4949478;29;19910;-77
2022/10/30 08:29:49;;;;;;;;;;;16.10;99.90;;;;;;4950616;28;20333;-77
2022/10/30 08:32:15;;;;;;;;;;;16.10;99.90;;;;;;4947401;29;19921;-76
2022/10/30 08:34:40;;;;;;;;;;;16.10;99.90;;;;;;4951944;29;19914;-77
2022/10/30 08:37:06;;;;;;;;;;;16.30;99.90;;;;;;4951211;29;19915;-76
2022/10/30 08:39:32;;;;;;;;;;;16.40;99.90;;;;;;4949933;28;20119;-76
2022/10/30 08:41:58;;;;;;;;;;;16.40;99.90;;;;;;4951635;29;19910;-77
2022/10/30 08:44:23;;;;;;;;;;;16.50;99.90;;;;;;4949549;28;20526;-77
2022/10/30 08:46:49;;;;;;;;;;;16.50;99.90;;;;;;4946513;28;19911;-76
2022/10/30 08:49:14;;;;;;;;;;;16.50;99.90;;;;;;4950080;28;19915;-76
2022/10/30 08:51:40;;;;;;;;;;;16.70;99.90;;;;;;4949408;29;19918;-76
2022/10/30 08:54:05;;;;;;;;;;;16.80;99.90;;;;;;4951636;29;19910;-76
2022/10/30 08:56:30;;;;;;;;;;;17.10;99.90;;;;;;4949736;28;20024;-77
2022/10/30 08:58:56;;;;;;;;;;;17.20;99.90;;;;;;4946824;29;19968;-77
2022/10/30 09:01:21;;;;;;;;;;;17.30;99.90;;;;;;4950614;29;19914;-76
2022/10/30 09:03:47;;;;;;;;;;;17.30;99.90;;;;;;4951413;28;19910;-76
2022/10/30 09:06:12;;;;;;;;;;;17.50;99.90;;;;;;4949092;29;20005;-76
2022/10/30 09:08:37;;;;;;;;;;;17.70;99.90;;;;;;4944209;29;20373;-76
2022/10/30 09:11:03;;;;;;;;;;;17.60;99.90;;;;;;4950208;29;19917;-77
2022/10/30 09:13:29;;;;;;;;;;;17.60;99.90;;;;;;4949585;29;19918;-76
2022/10/30 09:15:58;;;;;;;;;;;17.60;99.90;;;;;;4951204;28;19911;-76
2022/10/30 09:18:23;;;;;;;;;;;17.80;99.90;;;;;;4949596;28;19941;-76
2022/10/30 09:20:49;;;;;;;;;;;17.70;99.90;;;;;;4950171;29;19914;-77
2022/10/30 09:23:14;;;;;;;;;;;17.70;99.90;;;;;;4947317;28;20393;-76
2022/10/30 09:25:39;;;;;;;;;;;17.70;99.90;;;;;;4950870;29;19964;-77
2022/10/30 09:28:05;;;;;;;;;;;17.80;99.90;;;;;;4948985;29;19910;-77
2022/10/30 09:30:30;;;;;;;;;;;17.90;99.90;;;;;;4948434;28;19926;-77
2022/10/30 09:33:00;;;;;;;;;;;17.90;99.90;;;;;;4946191;28;20297;-75
2022/10/30 09:35:26;;;;;;;;;;;17.90;99.90;;;;;;4950633;29;19944;-76
2022/10/30 09:37:52;;;;;;;;;;;18.00;99.90;;;;;;4951175;28;20317;-76
2022/10/30 09:40:40;;;;;;;;;;;18.00;99.90;;;;;;4948731;29;19906;-76
2022/10/30 09:43:09;;;;;;;;;;;18.20;99.90;;;;;;4946983;29;19910;-76
2022/10/30 09:45:46;;;;;;;;;;;18.40;99.90;;;;;;4950774;29;19910;-76
2022/10/30 09:48:15;;;;;;;;;;;18.50;99.90;;;;;;4950051;29;19910;-76
2022/10/30 09:51:18;;;;;;;;;;;18.60;99.90;;;;;;4946026;28;19925;-76
2022/10/30 09:54:01;;;;;;;;;;;18.70;99.90;;;;;;4898368;29;19911;-76
2022/10/30 09:56:30;;;;;;;;;;;18.70;99.90;;;;;;4902190;29;19958;-75
2022/10/30 09:59:01;;;;;;;;;;;18.80;99.90;;;;;;4926612;28;20426;-76
2022/10/30 10:01:40;;;;;;;;;;;18.90;99.90;;;;;;4944925;28;19962;-76
2022/10/30 10:04:18;;;;;;;;;;;19.00;99.90;;;;;;4946470;29;19911;-76
2022/10/30 10:06:45;;;;;;;;;;;19.00;99.90;;;;;;4945585;28;19911;-77
2022/10/30 10:09:16;;;;;;;;;;;19.00;99.90;;;;;;4949467;28;19919;-76
2022/10/30 10:11:44;;;;;;;;;;;19.10;99.90;;;;;;4949137;28;20367;-77
2022/10/30 10:14:14;;;;;;;;;;;19.30;99.90;;;;;;4949680;28;19933;-77
2022/10/30 10:16:40;;;;;;;;;;;19.40;99.90;;;;;;4947021;28;19942;-75
2022/10/30 10:19:18;;;;;;;;;;;19.30;99.90;;;;;;4946848;28;19925;-76
2022/10/30 10:21:57;;;;;;;;;;;19.50;99.90;;;;;;4947839;28;20502;-76
2022/10/30 10:24:33;;;;;;;;;;;19.60;99.90;;;;;;4946429;28;20405;-76
2022/10/30 10:27:06;;;;;;;;;;;19.70;99.90;;;;;;4947342;28;19911;-76
2022/10/30 10:29:37;;;;;;;;;;;19.70;99.90;;;;;;4949841;28;19911;-76
2022/10/30 10:32:33;;;;;;;;;;;19.70;99.90;;;;;;4946169;29;19910;-76
2022/10/30 10:35:20;;;;;;;;;;;19.90;99.90;;;;;;4949337;28;19917;-76
2022/10/30 10:38:04;;;;;;;;;;;20.30;99.90;;;;;;4946774;28;19914;-76
2022/10/30 10:40:49;;;;;;;;;;;20.90;98.40;;;;;;4948968;28;19973;-76
2022/10/30 10:43:27;;;;;;;;;;;21.80;95.80;;;;;;4948776;28;19993;-76
2022/10/30 10:45:55;;;;;;;;;;;23.40;91.80;;;;;;4950309;28;19954;-77
2022/10/30 10:48:23;;;;;;;;;;;25.40;79.60;;;;;;4948768;29;19925;-76
2022/10/30 10:50:51;;;;;;;;;;;25.00;77.00;;;;;;4947181;28;20334;-75
2022/10/30 10:53:16;;;;;;;;;;;25.30;73.80;;;;;;4945642;28;19965;-76
2022/10/30 10:55:43;;;;;;;;;;;25.90;70.00;;;;;;4945736;28;19915;-76
2022/10/30 10:58:19;;;;;;;;;;;25.70;70.00;;;;;;4950152;28;19984;-77
2022/10/30 11:00:45;;;;;;;;;;;27.80;65.80;;;;;;4940187;28;19995;-76
2022/10/30 11:03:16;;;;;;;;;;;29.10;59.30;;;;;;4945821;29;20001;-77
2022/10/30 11:05:46;;;;;;;;;;;30.20;57.00;;;;;;4948743;28;19911;-78
2022/10/30 11:08:15;;;;;;;;;;;29.90;55.60;;;;;;4940590;28;20352;-79
2022/10/30 11:10:40;;;;;;;;;;;30.40;54.90;;;;;;4946596;29;19915;-78
2022/10/30 11:13:08;;;;;;;;;;;30.60;53.50;;;;;;4949003;29;19921;-78
2022/10/30 11:15:49;;;;;;;;;;;30.00;54.20;;;;;;4945506;28;20663;-82
2022/10/30 11:18:14;;;;;;;;;;;31.20;51.20;;;;;;4945169;28;19914;-82
2022/10/30 11:20:52;;;;;;;;;;;31.10;52.70;;;;;;4944816;28;19919;-83
2022/10/30 11:23:29;;;;;;;;;;;30.90;51.80;;;;;;4950015;29;19918;-83
2022/10/30 11:25:55;;;;;;;;;;;32.50;50.20;;;;;;4950047;29;19910;-80
2022/10/30 11:28:34;;;;;;;;;;;34.00;48.40;;;;;;4951219;28;19914;-85
2022/10/30 11:31:16;;;;;;;;;;;34.10;45.50;;;;;;4951874;28;19919;-83
2022/10/30 11:33:41;;;;;;;;;;;34.20;46.70;;;;;;4952503;28;19910;-78
2022/10/30 11:36:10;;;;;;;;;;;33.70;45.40;;;;;;4950026;29;19918;-78
2022/10/30 11:38:35;;;;;;;;;;;33.20;45.50;;;;;;4951963;29;20369;-77
2022/10/30 11:41:00;;;;;;;;;;;34.00;45.40;;;;;;4948670;28;20050;-78
2022/10/30 11:43:26;;;;;;;;;;;34.40;44.20;;;;;;4950260;29;20008;-77
2022/10/30 11:45:52;;;;;;;;;;;33.80;45.70;;;;;;4943620;29;19918;-79
2022/10/30 11:48:24;;;;;;;;;;;34.20;43.80;;;;;;4951172;28;19965;-78
2022/10/30 11:50:51;;;;;;;;;;;34.70;44.20;;;;;;4951192;28;20449;-78
2022/10/30 11:53:29;;;;;;;;;;;33.70;44.20;;;;;;4948573;28;19910;-76
2022/10/30 11:55:55;;;;;;;;;;;33.30;45.70;;;;;;4951156;28;19910;-78
2022/10/30 11:58:29;;;;;;;;;;;33.40;45.00;;;;;;4948565;28;20385;-78
2022/10/30 12:01:05;;;;;;;;;;;31.90;47.30;;;;;;4950129;29;20008;-76
2022/10/30 12:03:37;;;;;;;;;;;31.60;48.40;;;;;;4945444;28;19918;-77
2022/10/30 12:06:07;;;;;;;;;;;33.30;45.10;;;;;;4952342;28;20369;-78
2022/10/30 12:08:33;;;;;;;;;;;32.20;45.60;;;;;;4949045;28;19918;-80
2022/10/30 12:11:00;;;;;;;;;;;33.10;46.10;;;;;;4950243;29;20266;-80
2022/10/30 12:13:26;;;;;;;;;;;33.80;44.40;;;;;;4949289;28;19957;-79
2022/10/30 12:16:04;;;;;;;;;;;33.70;44.10;;;;;;4948490;28;20538;-80
2022/10/30 12:18:30;;;;;;;;;;;33.70;44.00;;;;;;4950292;28;19918;-79
2022/10/30 12:20:56;;;;;;;;;;;33.30;44.50;;;;;;4952783;28;20000;-77
2022/10/30 12:23:24;;;;;;;;;;;32.90;45.70;;;;;;4952447;28;20026;-77
2022/10/30 12:26:09;;;;;;;;;;;33.20;44.60;;;;;;4952774;29;19906;-76
2022/10/30 12:28:34;;;;;;;;;;;33.20;45.20;;;;;;4950602;28;20010;-77
2022/10/30 12:31:00;;;;;;;;;;;31.70;47.70;;;;;;4948829;28;20060;-77
2022/10/30 12:33:32;;;;;;;;;;;32.90;46.60;;;;;;4951227;29;19914;-76
2022/10/30 12:35:59;;;;;;;;;;;33.70;45.10;;;;;;4952751;28;20325;-77
2022/10/30 12:38:27;;;;;;;;;;;32.90;46.50;;;;;;4949404;28;19918;-77
2022/10/30 12:40:57;;;;;;;;;;;34.60;44.80;;;;;;4949215;28;19910;-77
2022/10/30 12:43:26;;;;;;;;;;;34.70;42.60;;;;;;4950346;28;19911;-78
2022/10/30 12:45:55;;;;;;;;;;;33.70;44.20;;;;;;4944193;28;19938;-77
2022/10/30 12:48:20;;;;;;;;;;;33.80;44.00;;;;;;4949236;28;19918;-78
2022/10/30 12:51:24;;;;;;;;;;;34.40;42.90;;;;;;4951744;29;19917;-77
2022/10/30 12:53:57;;;;;;;;;;;34.30;44.00;;;;;;4899555;29;19923;-77
2022/10/30 12:56:31;;;;;;;;;;;35.60;42.20;;;;;;4904971;29;19908;-75
2022/10/30 12:59:15;;;;;;;;;;;36.20;42.10;;;;;;4924500;28;19957;-77
2022/10/30 13:01:43;;;;;;;;;;;36.50;40.60;;;;;;4943162;29;19914;-77
2022/10/30 13:04:17;;;;;;;;;;;36.40;40.90;;;;;;4951582;28;19914;-78
2022/10/30 13:07:01;;;;;;;;;;;36.40;41.10;;;;;;4947857;28;19906;-79
2022/10/30 13:09:29;;;;;;;;;;;36.30;42.20;;;;;;4949008;29;19926;-79
2022/10/30 13:11:58;;;;;;;;;;;35.70;41.50;;;;;;4951060;28;20054;-78
2022/10/30 13:14:28;;;;;;;;;;;33.30;44.60;;;;;;4949176;28;19922;-78
2022/10/30 13:16:54;;;;;;;;;;;29.80;50.30;;;;;;4949992;28;20380;-79
2022/10/30 13:19:19;;;;;;;;;;;27.30;55.30;;;;;;4951727;28;19910;-78
2022/10/30 13:21:45;;;;;;;;;;;26.30;58.90;;;;;;4949819;29;19922;-78
2022/10/30 13:24:12;;;;;;;;;;;25.30;60.60;;;;;;4950555;29;19914;-78
2022/10/30 13:26:46;;;;;;;;;;;24.50;62.60;;;;;;4950707;28;20475;-78
2022/10/30 13:29:20;;;;;;;;;;;23.90;65.10;;;;;;4950979;28;19914;-79
2022/10/30 13:32:04;;;;;;;;;;;23.50;67.40;;;;;;4944076;28;19926;-80
2022/10/30 13:34:36;;;;;;;;;;;23.30;68.60;;;;;;4941796;28;19962;-78
2022/10/30 13:37:04;;;;;;;;;;;23.20;69.10;;;;;;4942258;28;19910;-77
2022/10/30 13:39:33;;;;;;;;;;;23.00;70.50;;;;;;4946348;29;19929;-77
2022/10/30 13:42:17;;;;;;;;;;;22.90;71.10;;;;;;4951206;28;19917;-78
2022/10/30 13:44:51;;;;;;;;;;;22.80;72.40;;;;;;4940392;28;19910;-76
2022/10/30 13:47:29;;;;;;;;;;;22.70;72.60;;;;;;4948018;28;19911;-80
2022/10/30 13:49:54;;;;;;;;;;;22.60;72.80;;;;;;4947767;28;19933;-76
2022/10/30 13:52:21;;;;;;;;;;;22.70;73.40;;;;;;4950437;29;20445;-78
2022/10/30 13:55:04;;;;;;;;;;;22.70;74.30;;;;;;4950093;28;19914;-76
2022/10/30 13:57:30;;;;;;;;;;;23.10;73.70;;;;;;4947182;29;19926;-77
2022/10/30 14:00:01;;;;;;;;;;;23.20;72.10;;;;;;4947172;29;20110;-77
2022/10/30 14:02:27;;;;;;;;;;;23.50;71.70;;;;;;4947919;29;19965;-77
2022/10/30 14:04:52;;;;;;;;;;;23.10;72.60;;;;;;4948442;29;19910;-76
2022/10/30 14:07:41;;;;;;;;;;;23.20;72.50;;;;;;4944645;28;19910;-76
2022/10/30 14:10:14;;;;;;;;;;;23.60;72.30;;;;;;4949391;28;19910;-76
2022/10/30 14:12:44;;;;;;;;;;;24.20;69.80;;;;;;4949379;28;20284;-78
2022/10/30 14:15:28;;;;;;;;;;;25.50;66.40;;;;;;4949102;28;19910;-76
2022/10/30 14:18:12;;;;;;;;;;;25.10;66.00;;;;;;4948405;29;19918;-76
2022/10/30 14:20:38;;;;;;;;;;;24.40;67.90;;;;;;4947387;29;20662;-77
2022/10/30 14:23:14;;;;;;;;;;;23.60;70.00;;;;;;4948557;28;19910;-75